createdAt,value
2017-08-16T00:02:07.217Z,98.80
2017-08-16T00:04:36.416Z,99.10
2017-08-16T00:07:04.845Z,99.00
2017-08-16T00:09:33.392Z,99.20
2017-08-16T00:12:01.809Z,99.10
2017-08-16T00:14:30.274Z,99.10
2017-08-16T00:16:58.742Z,99.00
2017-08-16T00:19:27.157Z,99.00
2017-08-16T00:21:55.615Z,99.00
2017-08-16T00:24:24.029Z,99.00
2017-08-16T00:26:52.465Z,99.00
2017-08-16T00:29:20.910Z,98.90
2017-08-16T00:31:49.330Z,98.90
2017-08-16T00:34:17.754Z,98.90
2017-08-16T00:36:46.367Z,98.90
2017-08-16T00:39:14.781Z,98.80
2017-08-16T00:41:43.199Z,99.00
2017-08-16T00:44:11.650Z,99.20
2017-08-16T00:46:39.709Z,99.30
2017-08-16T00:49:07.774Z,99.40
2017-08-16T00:51:36.216Z,99.50
2017-08-16T00:54:05.401Z,99.40
2017-08-16T00:56:33.890Z,99.20
2017-08-16T00:59:03.094Z,99.30
2017-08-16T01:01:31.590Z,99.30
2017-08-16T01:04:00.009Z,99.30
2017-08-16T01:06:29.192Z,99.20
2017-08-16T01:08:57.624Z,99.30
2017-08-16T01:11:26.460Z,99.40
2017-08-16T01:13:54.899Z,99.40
2017-08-16T01:16:23.349Z,99.70
2017-08-16T01:18:52.545Z,99.10
2017-08-16T01:21:21.677Z,98.70
2017-08-16T01:23:50.322Z,98.90
2017-08-16T01:26:18.752Z,99.10
2017-08-16T01:28:47.200Z,99.00
2017-08-16T01:31:17.100Z,99.10
2017-08-16T01:33:46.512Z,99.10
2017-08-16T01:36:15.727Z,99.10
2017-08-16T01:38:44.337Z,99.10
2017-08-16T01:41:13.585Z,99.10
2017-08-16T01:43:42.089Z,99.30
2017-08-16T01:46:11.473Z,99.40
2017-08-16T01:48:40.687Z,99.50
2017-08-16T01:51:10.789Z,99.40
2017-08-16T01:53:40.013Z,99.70
2017-08-16T01:56:08.433Z,99.40
2017-08-16T01:58:36.552Z,99.60
2017-08-16T02:01:05.796Z,99.50
2017-08-16T02:03:34.218Z,99.50
2017-08-16T02:06:03.415Z,99.40
2017-08-16T02:08:32.638Z,99.60
2017-08-16T02:11:02.513Z,99.50
2017-08-16T02:13:30.945Z,99.50
2017-08-16T02:15:59.733Z,99.50
2017-08-16T02:18:28.973Z,99.80
2017-08-16T02:20:57.464Z,99.50
2017-08-16T02:23:26.716Z,99.40
2017-08-16T02:25:55.164Z,99.40
2017-08-16T02:28:23.602Z,99.40
2017-08-16T02:30:52.053Z,99.60
2017-08-16T02:33:20.489Z,99.60
2017-08-16T02:35:49.693Z,99.50
2017-08-16T02:38:18.909Z,99.40
2017-08-16T02:40:47.388Z,99.40
2017-08-16T02:43:16.078Z,99.50
2017-08-16T02:45:44.606Z,99.40
2017-08-16T02:48:13.028Z,99.20
2017-08-16T02:50:41.465Z,99.50
2017-08-16T02:53:09.637Z,99.30
2017-08-16T02:55:37.369Z,99.40
2017-08-16T02:58:06.049Z,99.10
2017-08-16T03:00:34.141Z,99.40
2017-08-16T03:03:01.865Z,99.50
2017-08-16T03:05:30.017Z,99.50
2017-08-16T03:07:59.445Z,99.50
2017-08-16T03:10:27.525Z,99.50
2017-08-16T03:12:55.952Z,99.10
2017-08-16T03:15:24.116Z,99.00
2017-08-16T03:17:51.922Z,99.00
2017-08-16T03:20:21.288Z,99.00
2017-08-16T03:22:49.745Z,99.00
2017-08-16T03:25:18.081Z,98.90
2017-08-16T03:27:46.506Z,99.00
2017-08-16T03:30:14.257Z,98.70
2017-08-16T03:32:42.352Z,98.90
2017-08-16T03:35:10.412Z,99.00
2017-08-16T03:37:38.523Z,99.10
2017-08-16T03:40:07.023Z,99.10
2017-08-16T03:42:35.089Z,99.20
2017-08-16T03:45:03.200Z,99.30
2017-08-16T03:47:31.594Z,99.40
2017-08-16T03:50:00.338Z,99.40
2017-08-16T03:52:28.447Z,99.40
2017-08-16T03:54:56.523Z,99.40
2017-08-16T03:57:24.269Z,99.40
2017-08-16T03:59:52.388Z,99.20
2017-08-16T04:02:20.492Z,98.90
2017-08-16T04:04:48.220Z,99.20
2017-08-16T04:07:15.988Z,99.40
2017-08-16T04:09:44.405Z,99.50
2017-08-16T04:12:12.484Z,99.40
2017-08-16T04:14:41.092Z,99.30
2017-08-16T04:17:09.172Z,99.30
2017-08-16T04:19:38.394Z,99.40
2017-08-16T04:22:08.585Z,99.40
2017-08-16T04:24:36.928Z,99.50
2017-08-16T04:27:05.092Z,99.50
2017-08-16T04:32:11.462Z,99.30
2017-08-16T04:34:39.884Z,99.20
2017-08-16T04:37:07.959Z,99.70
2017-08-16T04:39:35.680Z,99.50
2017-08-16T04:42:04.473Z,99.50
2017-08-16T04:44:32.540Z,99.30
2017-08-16T04:47:00.616Z,99.40
2017-08-16T04:49:28.729Z,99.30
2017-08-16T04:51:56.788Z,99.50
2017-08-16T04:54:24.877Z,99.60
2017-08-16T04:56:54.277Z,99.60
2017-08-16T04:59:23.428Z,99.40
2017-08-16T05:01:51.512Z,99.40
2017-08-16T05:04:20.012Z,99.50
2017-08-16T05:06:48.104Z,99.50
2017-08-16T05:09:16.939Z,99.70
2017-08-16T05:11:45.037Z,99.70
2017-08-16T05:14:13.612Z,99.70
2017-08-16T05:16:41.800Z,99.60
2017-08-16T05:19:10.777Z,99.90
2017-08-16T05:21:39.192Z,99.70
2017-08-16T05:24:06.942Z,99.70
2017-08-16T05:26:35.802Z,99.80
2017-08-16T05:29:05.513Z,99.70
2017-08-16T05:31:33.581Z,99.70
2017-08-16T05:34:01.657Z,99.80
2017-08-16T05:36:29.364Z,99.90
2017-08-16T05:38:57.432Z,99.80
2017-08-16T05:41:25.891Z,99.60
2017-08-16T05:43:54.761Z,99.30
2017-08-16T05:46:22.829Z,99.30
2017-08-16T05:48:51.272Z,99.40
2017-08-16T05:51:19.560Z,99.40
2017-08-16T05:53:47.777Z,99.40
2017-08-16T05:56:16.980Z,99.30
2017-08-16T05:58:46.178Z,99.20
2017-08-16T06:01:14.597Z,99.20
2017-08-16T06:03:43.093Z,98.80
2017-08-16T06:06:12.368Z,98.80
2017-08-16T06:08:40.785Z,98.90
2017-08-16T06:11:09.411Z,99.00
2017-08-16T06:13:37.858Z,98.90
2017-08-16T06:16:07.132Z,99.10
2017-08-16T06:18:36.351Z,98.80
2017-08-16T06:21:05.101Z,98.90
2017-08-16T06:23:33.525Z,98.50
2017-08-16T06:26:01.955Z,98.40
2017-08-16T06:28:31.006Z,97.70
2017-08-16T06:31:01.391Z,97.70
2017-08-16T06:33:29.948Z,97.30
2017-08-16T06:35:58.411Z,97.50
2017-08-16T06:38:27.592Z,97.40
2017-08-16T06:40:57.494Z,97.40
2017-08-16T06:43:25.931Z,97.40
2017-08-16T06:45:54.369Z,97.40
2017-08-16T06:48:23.585Z,97.40
2017-08-16T06:50:52.004Z,97.40
2017-08-16T06:53:20.437Z,97.10
2017-08-16T06:55:49.016Z,97.30
2017-08-16T06:58:18.387Z,97.50
2017-08-16T07:00:46.820Z,97.50
2017-08-16T07:03:15.527Z,97.60
2017-08-16T07:05:43.958Z,97.60
2017-08-16T07:08:13.168Z,96.30
2017-08-16T07:10:41.620Z,96.30
2017-08-16T07:13:10.821Z,97.30
2017-08-16T07:15:40.028Z,96.80
2017-08-16T07:18:09.263Z,95.50
2017-08-16T07:20:38.490Z,95.50
2017-08-16T07:23:07.003Z,95.30
2017-08-16T07:25:36.377Z,95.70
2017-08-16T07:28:04.793Z,95.70
2017-08-16T07:30:33.221Z,95.60
2017-08-16T07:33:01.869Z,94.60
2017-08-16T07:35:30.268Z,95.10
2017-08-16T07:37:58.700Z,94.80
2017-08-16T07:40:27.936Z,94.10
2017-08-16T07:42:58.030Z,94.10
2017-08-16T07:45:26.482Z,94.10
2017-08-16T07:47:55.697Z,94.60
2017-08-16T07:50:24.205Z,94.60
2017-08-16T07:52:52.050Z,94.60
2017-08-16T07:55:20.640Z,94.70
2017-08-16T07:57:49.057Z,95.00
2017-08-16T08:00:17.484Z,95.00
2017-08-16T08:02:46.696Z,94.20
2017-08-16T08:05:15.269Z,94.20
2017-08-16T08:07:43.693Z,94.30
2017-08-16T08:10:12.125Z,93.30
2017-08-16T08:12:40.197Z,92.80
2017-08-16T08:15:08.635Z,91.90
2017-08-16T08:17:37.116Z,91.20
2017-08-16T08:20:05.549Z,89.00
2017-08-16T08:22:34.653Z,89.80
2017-08-16T08:25:03.213Z,89.30
2017-08-16T08:27:32.225Z,90.20
2017-08-16T08:30:00.811Z,85.70
2017-08-16T08:32:29.489Z,83.20
2017-08-16T08:34:57.930Z,83.70
2017-08-16T08:37:27.142Z,83.00
2017-08-16T08:39:56.365Z,82.40
2017-08-16T08:42:24.786Z,82.30
2017-08-16T08:44:53.197Z,80.10
2017-08-16T08:47:21.663Z,81.70
2017-08-16T08:49:50.881Z,80.80
2017-08-16T08:52:19.318Z,80.40
2017-08-16T08:54:48.057Z,78.10
2017-08-16T08:57:16.526Z,76.70
2017-08-16T08:59:45.009Z,78.40
2017-08-16T09:02:13.586Z,76.40
2017-08-16T09:04:42.031Z,77.60
2017-08-16T09:07:10.503Z,78.30
2017-08-16T09:09:39.860Z,75.90
2017-08-16T09:12:09.090Z,75.90
2017-08-16T09:14:37.524Z,78.90
2017-08-16T09:17:06.107Z,76.60
2017-08-16T09:19:34.551Z,78.00
2017-08-16T09:22:02.975Z,75.80
2017-08-16T09:24:31.447Z,74.40
2017-08-16T09:27:00.689Z,73.80
2017-08-16T09:29:29.130Z,73.80
2017-08-16T09:31:57.479Z,74.30
2017-08-16T09:34:26.692Z,70.30
2017-08-16T09:36:55.181Z,70.20
2017-08-16T09:39:23.645Z,70.80
2017-08-16T09:41:52.065Z,69.50
2017-08-16T09:44:20.988Z,70.40
2017-08-16T09:46:49.509Z,68.70
2017-08-16T09:49:17.934Z,71.90
2017-08-16T09:51:46.452Z,70.30
2017-08-16T09:54:15.684Z,69.90
2017-08-16T09:56:44.112Z,69.90
2017-08-16T09:59:12.577Z,68.00
2017-08-16T10:01:40.698Z,69.30
2017-08-16T10:04:09.926Z,67.40
2017-08-16T10:06:38.349Z,68.00
2017-08-16T10:09:08.393Z,67.10
2017-08-16T10:11:37.357Z,67.10
2017-08-16T10:14:06.541Z,66.90
2017-08-16T10:16:34.650Z,66.80
2017-08-16T10:19:03.457Z,65.80
2017-08-16T10:21:32.758Z,64.00
2017-08-16T10:24:01.209Z,65.70
2017-08-16T10:26:29.608Z,68.30
2017-08-16T10:28:58.049Z,66.80
2017-08-16T10:31:26.505Z,68.10
2017-08-16T10:33:54.992Z,67.80
2017-08-16T10:36:23.435Z,65.40
2017-08-16T10:38:51.885Z,67.10
2017-08-16T10:41:21.017Z,67.00
2017-08-16T10:43:49.433Z,66.00
2017-08-16T10:46:17.893Z,67.20
2017-08-16T10:48:46.328Z,67.30
2017-08-16T10:51:15.442Z,66.30
2017-08-16T10:53:43.906Z,66.50
2017-08-16T10:56:12.331Z,67.10
2017-08-16T10:58:40.749Z,66.60
2017-08-16T11:01:09.193Z,66.00
2017-08-16T11:03:37.636Z,66.50
2017-08-16T11:06:06.093Z,64.30
2017-08-16T11:08:34.553Z,65.60
2017-08-16T11:11:03.668Z,63.40
2017-08-16T11:13:32.085Z,65.30
2017-08-16T11:16:00.522Z,66.10
2017-08-16T11:18:28.951Z,65.10
2017-08-16T11:20:57.425Z,65.00
2017-08-16T11:23:27.026Z,65.50
2017-08-16T11:25:55.486Z,63.70
2017-08-16T11:28:23.902Z,64.90
2017-08-16T11:30:52.370Z,63.30
2017-08-16T11:33:20.793Z,64.80
2017-08-16T11:35:49.251Z,62.60
2017-08-16T11:38:17.717Z,62.60
2017-08-16T11:40:46.141Z,65.10
2017-08-16T11:43:15.544Z,65.30
2017-08-16T11:45:44.022Z,65.70
2017-08-16T11:48:13.237Z,65.10
2017-08-16T11:50:41.670Z,65.00
2017-08-16T11:53:10.926Z,65.50
2017-08-16T11:55:39.361Z,63.80
2017-08-16T11:58:07.871Z,65.70
2017-08-16T12:00:36.441Z,65.10
2017-08-16T12:03:05.690Z,64.50
2017-08-16T12:05:34.134Z,64.50
2017-08-16T12:08:02.583Z,64.70
2017-08-16T12:10:31.058Z,63.50
2017-08-16T12:12:59.490Z,62.00
2017-08-16T12:15:27.953Z,61.20
2017-08-16T12:17:56.373Z,61.00
2017-08-16T12:20:24.792Z,64.40
2017-08-16T12:22:53.405Z,64.60
2017-08-16T12:25:25.478Z,64.30
2017-08-16T12:27:58.375Z,63.90
2017-08-16T12:30:27.607Z,63.60
2017-08-16T12:32:56.076Z,63.60
2017-08-16T12:35:24.371Z,63.40
2017-08-16T12:37:57.623Z,63.00
2017-08-16T12:40:27.452Z,63.00
2017-08-16T12:42:58.709Z,62.70
2017-08-16T12:45:30.211Z,61.20
2017-08-16T12:47:59.930Z,61.10
2017-08-16T12:50:32.284Z,62.20
2017-08-16T12:53:02.627Z,60.50
2017-08-16T12:55:32.925Z,59.90
2017-08-16T12:58:03.473Z,60.50
2017-08-16T13:00:32.128Z,60.90
2017-08-16T13:03:03.061Z,59.80
2017-08-16T13:05:36.005Z,60.10
2017-08-16T13:08:07.469Z,60.70
2017-08-16T13:10:38.482Z,62.90
2017-08-16T13:13:07.058Z,62.10
2017-08-16T13:15:36.850Z,62.20
2017-08-16T13:18:05.954Z,64.10
2017-08-16T13:20:35.661Z,60.90
2017-08-16T13:23:05.156Z,60.20
2017-08-16T13:25:34.931Z,60.00
2017-08-16T13:28:04.575Z,59.00
2017-08-16T13:30:33.651Z,57.00
2017-08-16T13:33:06.665Z,56.40
2017-08-16T13:35:36.965Z,58.00
2017-08-16T13:38:07.967Z,59.60
2017-08-16T13:40:38.361Z,58.80
2017-08-16T13:43:14.514Z,59.40
2017-08-16T13:45:45.049Z,58.90
2017-08-16T13:48:16.730Z,59.30
2017-08-16T13:50:45.153Z,57.90
2017-08-16T13:53:13.565Z,55.10
2017-08-16T13:55:41.981Z,55.40
2017-08-16T13:58:10.420Z,56.90
2017-08-16T14:00:38.836Z,59.80
2017-08-16T14:03:07.302Z,59.70
2017-08-16T14:05:35.766Z,58.80
2017-08-16T14:08:04.221Z,59.00
2017-08-16T14:10:32.661Z,58.40
2017-08-16T14:13:01.114Z,59.30
2017-08-16T14:15:29.529Z,58.30
2017-08-16T14:17:58.700Z,60.20
2017-08-16T14:20:27.944Z,57.80
2017-08-16T14:22:56.361Z,58.10
2017-08-16T14:25:24.797Z,56.10
2017-08-16T14:27:53.234Z,59.00
2017-08-16T14:30:22.355Z,58.00
2017-08-16T14:32:50.764Z,59.80
2017-08-16T14:35:19.220Z,60.10
2017-08-16T14:37:47.648Z,61.20
2017-08-16T14:40:16.084Z,59.00
2017-08-16T14:42:44.517Z,60.70
2017-08-16T14:45:12.927Z,58.20
2017-08-16T14:47:41.160Z,57.60
2017-08-16T14:50:09.406Z,58.80
2017-08-16T14:52:37.838Z,60.80
2017-08-16T14:55:07.084Z,60.00
2017-08-16T14:57:35.523Z,60.50
2017-08-16T15:00:03.945Z,59.10
2017-08-16T15:02:32.354Z,59.00
2017-08-16T15:05:00.803Z,60.70
2017-08-16T15:07:29.233Z,60.70
2017-08-16T15:09:58.454Z,59.80
2017-08-16T15:12:26.898Z,59.80
2017-08-16T15:14:55.332Z,60.40
2017-08-16T15:17:23.775Z,59.20
2017-08-16T15:19:52.989Z,60.50
2017-08-16T15:22:21.405Z,60.50
2017-08-16T15:24:50.510Z,60.20
2017-08-16T15:27:18.955Z,59.10
2017-08-16T15:29:47.377Z,59.10
2017-08-16T15:32:15.816Z,58.30
2017-08-16T15:34:44.255Z,59.80
2017-08-16T15:37:13.450Z,59.20
2017-08-16T15:39:42.637Z,60.20
2017-08-16T15:42:11.113Z,60.10
2017-08-16T15:44:39.529Z,59.60
2017-08-16T15:47:07.965Z,58.90
2017-08-16T15:49:36.422Z,59.30
2017-08-16T15:52:04.846Z,60.00
2017-08-16T15:54:34.036Z,60.50
2017-08-16T15:57:03.253Z,61.50
2017-08-16T15:59:32.441Z,60.70
2017-08-16T16:02:00.881Z,60.70
2017-08-16T16:04:29.326Z,60.10
2017-08-16T16:06:57.752Z,60.00
2017-08-16T16:09:26.178Z,60.20
2017-08-16T16:11:54.632Z,59.60
2017-08-16T16:14:23.841Z,60.60
2017-08-16T16:16:52.265Z,60.60
2017-08-16T16:19:20.527Z,60.90
2017-08-16T16:21:49.005Z,60.30
2017-08-16T16:24:17.440Z,59.60
2017-08-16T16:26:45.882Z,59.50
2017-08-16T16:29:14.294Z,59.80
2017-08-16T16:31:42.719Z,61.30
2017-08-16T16:34:11.172Z,61.90
2017-08-16T16:36:39.585Z,63.40
2017-08-16T16:39:08.019Z,61.60
2017-08-16T16:41:36.440Z,60.70
2017-08-16T16:44:04.860Z,61.80
2017-08-16T16:46:33.298Z,63.10
2017-08-16T16:49:01.750Z,61.90
2017-08-16T16:51:30.189Z,63.40
2017-08-16T16:53:58.617Z,63.20
2017-08-16T16:56:27.088Z,63.50
2017-08-16T16:58:56.132Z,62.80
2017-08-16T17:01:24.548Z,62.90
2017-08-16T17:03:53.004Z,63.70
2017-08-16T17:06:21.441Z,64.20
2017-08-16T17:08:49.881Z,63.90
2017-08-16T17:11:19.081Z,64.10
2017-08-16T17:13:48.257Z,65.20
2017-08-16T17:16:16.672Z,65.10
2017-08-16T17:18:45.136Z,64.60
2017-08-16T17:21:14.333Z,64.40
2017-08-16T17:23:43.519Z,64.60
2017-08-16T17:26:11.978Z,64.50
2017-08-16T17:28:40.400Z,65.00
2017-08-16T17:31:08.639Z,64.40
2017-08-16T17:33:37.139Z,65.10
2017-08-16T17:36:06.372Z,65.40
2017-08-16T17:38:34.849Z,65.10
2017-08-16T17:41:03.513Z,65.30
2017-08-16T17:43:32.728Z,65.10
2017-08-16T17:46:01.175Z,65.10
2017-08-16T17:48:30.352Z,65.90
2017-08-16T17:50:58.769Z,66.10
2017-08-16T17:53:27.201Z,66.10
2017-08-16T17:55:55.681Z,66.80
2017-08-16T17:58:24.104Z,67.50
2017-08-16T18:00:52.561Z,68.10
2017-08-16T18:03:21.694Z,68.50
2017-08-16T18:05:50.148Z,68.50
2017-08-16T18:08:19.333Z,68.70
2017-08-16T18:10:47.773Z,69.30
2017-08-16T18:13:16.221Z,68.60
2017-08-16T18:15:44.657Z,69.70
2017-08-16T18:18:13.068Z,69.50
2017-08-16T18:20:42.264Z,70.50
2017-08-16T18:23:11.489Z,70.30
2017-08-16T18:25:40.081Z,70.30
2017-08-16T18:28:08.508Z,70.30
2017-08-16T18:30:37.702Z,71.20
2017-08-16T18:33:06.156Z,71.10
2017-08-16T18:35:34.587Z,70.80
2017-08-16T18:38:03.005Z,71.80
2017-08-16T18:40:31.588Z,70.40
2017-08-16T18:43:00.044Z,70.90
2017-08-16T18:45:28.473Z,71.30
2017-08-16T18:47:56.972Z,72.40
2017-08-16T18:50:26.189Z,72.40
2017-08-16T18:52:54.650Z,71.60
2017-08-16T18:55:23.863Z,72.00
2017-08-16T18:57:52.291Z,72.00
2017-08-16T19:00:20.711Z,72.40
2017-08-16T19:02:49.878Z,72.10
2017-08-16T19:05:18.310Z,72.50
2017-08-16T19:07:46.760Z,73.70
2017-08-16T19:10:15.965Z,74.50
2017-08-16T19:12:45.157Z,73.90
2017-08-16T19:15:14.161Z,74.10
2017-08-16T19:17:42.622Z,74.10
2017-08-16T19:20:11.816Z,74.50
2017-08-16T19:22:41.032Z,74.80
2017-08-16T19:25:10.234Z,74.70
2017-08-16T19:27:38.684Z,74.70
2017-08-16T19:30:07.089Z,75.00
2017-08-16T19:32:35.536Z,75.50
2017-08-16T19:35:03.981Z,75.70
2017-08-16T19:37:32.419Z,75.60
2017-08-16T19:40:01.627Z,76.20
2017-08-16T19:42:30.067Z,76.20
2017-08-16T19:44:58.493Z,76.70
2017-08-16T19:47:26.954Z,77.70
2017-08-16T19:49:55.373Z,77.90
2017-08-16T19:52:23.796Z,78.20
2017-08-16T19:54:53.029Z,78.70
2017-08-16T19:57:21.464Z,78.70
2017-08-16T19:59:49.882Z,79.50
2017-08-16T20:02:18.320Z,79.20
2017-08-16T20:04:46.741Z,79.50
2017-08-16T20:07:15.158Z,79.90
2017-08-16T20:09:43.592Z,79.60
2017-08-16T20:12:12.026Z,79.80
2017-08-16T20:14:40.453Z,80.30
2017-08-16T20:17:08.920Z,80.70
2017-08-16T20:19:38.130Z,81.50
2017-08-16T20:22:06.525Z,81.50
2017-08-16T20:24:34.985Z,82.70
2017-08-16T20:27:03.422Z,82.60
2017-08-16T20:29:31.866Z,83.50
2017-08-16T20:32:01.777Z,82.50
2017-08-16T20:34:30.200Z,82.50
2017-08-16T20:36:58.618Z,83.10
2017-08-16T20:39:27.080Z,83.30
2017-08-16T20:41:56.231Z,83.50
2017-08-16T20:44:24.718Z,82.70
2017-08-16T20:46:53.146Z,83.40
2017-08-16T20:49:21.573Z,83.90
2017-08-16T20:51:50.001Z,84.50
2017-08-16T20:54:18.456Z,84.70
2017-08-16T20:56:46.882Z,84.70
2017-08-16T20:59:15.275Z,84.30
2017-08-16T21:01:43.730Z,83.80
2017-08-16T21:04:12.165Z,83.50
2017-08-16T21:06:40.589Z,84.00
2017-08-16T21:09:09.038Z,83.90
2017-08-16T21:11:38.136Z,83.20
2017-08-16T21:14:07.332Z,83.20
2017-08-16T21:16:36.544Z,84.30
2017-08-16T21:19:04.962Z,83.50
2017-08-16T21:21:33.390Z,83.50
2017-08-16T21:24:02.622Z,83.10
2017-08-16T21:26:31.043Z,83.70
2017-08-16T21:28:59.481Z,83.60
2017-08-16T21:31:27.935Z,83.50
2017-08-16T21:33:57.120Z,84.30
2017-08-16T21:36:26.312Z,85.20
2017-08-16T21:38:55.524Z,85.00
2017-08-16T21:41:24.719Z,84.80
2017-08-16T21:43:53.906Z,84.80
2017-08-16T21:46:22.345Z,84.70
2017-08-16T21:48:50.757Z,84.80
2017-08-16T21:51:19.949Z,85.90
2017-08-16T21:53:48.432Z,85.90
2017-08-16T21:56:16.845Z,86.70
2017-08-16T21:58:46.780Z,87.10
2017-08-16T22:01:15.261Z,86.90
2017-08-16T22:03:45.173Z,87.60
2017-08-16T22:06:13.585Z,87.60
2017-08-16T22:08:42.074Z,87.70
2017-08-16T22:11:10.563Z,88.10
2017-08-16T22:13:39.068Z,88.50
2017-08-16T22:16:07.593Z,88.80
2017-08-16T22:18:36.012Z,88.50
2017-08-16T22:21:05.270Z,89.30
2017-08-16T22:23:33.704Z,89.30
2017-08-16T22:26:02.177Z,90.00
2017-08-16T22:28:31.512Z,90.10
2017-08-16T22:30:59.961Z,90.10
2017-08-16T22:33:28.385Z,90.10
2017-08-16T22:35:56.848Z,90.20
2017-08-16T22:38:25.434Z,90.40
2017-08-16T22:40:54.054Z,90.70
2017-08-16T22:43:22.491Z,90.80
2017-08-16T22:45:50.955Z,90.90
2017-08-16T22:48:19.455Z,91.00
2017-08-16T22:50:48.073Z,91.10
2017-08-16T22:53:16.591Z,91.20
2017-08-16T22:55:45.859Z,91.10
2017-08-16T22:58:14.284Z,91.10
2017-08-16T23:00:42.767Z,91.00
2017-08-16T23:03:11.362Z,90.90
2017-08-16T23:05:39.905Z,90.90
2017-08-16T23:08:09.105Z,91.20
2017-08-16T23:10:37.550Z,91.20
2017-08-16T23:13:06.104Z,91.20
2017-08-16T23:15:34.574Z,91.20
2017-08-16T23:18:03.012Z,91.10
2017-08-16T23:20:32.202Z,91.50
2017-08-16T23:23:00.778Z,91.50
2017-08-16T23:25:29.218Z,91.50
2017-08-16T23:27:57.633Z,91.60
2017-08-16T23:30:26.174Z,91.50
2017-08-16T23:32:54.709Z,91.30
2017-08-16T23:35:23.897Z,91.50
2017-08-16T23:37:52.349Z,91.50
2017-08-16T23:40:21.020Z,91.70
2017-08-16T23:42:49.608Z,92.00
2017-08-16T23:45:21.394Z,92.20
2017-08-16T23:47:49.809Z,92.20
2017-08-16T23:50:18.233Z,92.10
2017-08-16T23:52:46.666Z,92.10
2017-08-16T23:55:15.097Z,92.00
2017-08-16T23:57:43.516Z,92.00
